Hit Tracker is now ESPN Home Run Tracker! Hit Tracker founder Greg Rybarczyk is now collaborating with the ESPN Stats & Information Group to continue tracking all MLB home runs, and helping baseball fans know "How Far It Really Went!™" Please credit any information on this site to ESPN Stats & Information Group. For more information and analysis on home runs, please contact founder Greg Rybarczyk. E-Mail ESPN Home Run Tracker
Main Page | Ballparks | Park Overlays | Glossary | Highlight Homers | Feedback | Bio | 3 Types of HR's | AAA Home Run Derby Last Updated: August 17, 2017, 10:26 pm PST
If you want to know "How Far It Really Went!", then you've come to the right place! Welcome to the ESPN Home Run Tracker, where you can find accurate, transparently verifiable distances for every home run hit in MLB games. Please also check out the ESPN MLB Scoreboard throughout the 2017 season! Contact us at grybar@hittrackeronline.com.
Season:
Hitter detail for Stanton, Giancarlo
Hitter Team # of Home Runs Avg.
True
Distance
Avg.
Speed
Off
Bat
Avg.
Std.
Dist.
Stanton, Giancarlo MIA 44 417.1 107.3 414.7

Stanton, Giancarlo has the longest home runs in 2017 Season in these park(s): PNC Park, SunTrust Park

Scatter Plot of Home Runs for Stanton, Giancarlo
 Overlay Ballpark:

2017 Season Home Runs for Stanton, Giancarlo
Click headers to sort
Date Video Path Hitter Hitter
Team
Pitcher Pitcher
Team
INN Ballpark Type/
Luck
True
Dist.
Speed
Off
Bat
Elev.
Angle
Horiz.
Angle
Apex Impact Due To: Std.
Dist.
#
Parks
Wind ^ Temp. Alt.
07/07/17 Video View Stanton, Giancarlo MIA Moore, Matt SF 1 AT&T Park JE/L 376 94.6 38.5 64.9 110 42 0 0 334 0
07/09/17 Video View Stanton, Giancarlo MIA Kontos, George SF 11 AT&T Park JE 390 98.6 28.5 104.8 77 10 -1 0 381 8
07/09/17 Video View Stanton, Giancarlo MIA Cueto, Johnny SF 5 AT&T Park PL 441 105.6 27.8 93.3 101 7 -1 0 435 30
05/07/17 Video View Stanton, Giancarlo MIA Wilk, Adam NYM 1 Citi Field ND 425 110.8 25.3 110.8 78 3 -1 0 425 30
08/05/17 Video View Stanton, Giancarlo MIA Foltynewicz, Mike ATL 6 SunTrust Par... ND 458 110.0 28.8 100.2 113 2 3 3 450 30
05/06/17 Video View Stanton, Giancarlo MIA Gsellman, Robert NYM 2 Citi Field PL 405 105.2 23.9 78.0 72 1 -1 0 405 27
07/24/17 Video View Stanton, Giancarlo MIA Perez, Martin TEX 1 Globe Life P... ND 434 111.4 26.2 112.6 84 1 3 1 429 30
08/04/17 Video View Stanton, Giancarlo MIA Dickey, R.A. ATL 4 SunTrust Par... ND 479 113.2 24.9 92.3 101 1 2 2 475 30
04/12/17 Video View Stanton, Giancarlo MIA Garcia, Jaime ATL 5 Marlins Park JE 392 115.5 19.6 113.5 49 0 0 0 392 29
04/12/17 Video View Stanton, Giancarlo MIA Garcia, Jaime ATL 3 Marlins Park JE 392 101.2 34.9 100.6 133 0 1 0 391 24
04/15/17 Video View Stanton, Giancarlo MIA Salas, Fernando NYM 8 Marlins Park PL 441 113.5 18.8 90.3 63 0 0 0 441 29
04/19/17 Video View Stanton, Giancarlo MIA Hernandez, Felix SEA 3 Safeco Field ND 448 109.1 25.8 95.1 101 0 -2 0 450 30
04/21/17 Video View Stanton, Giancarlo MIA Hand, Brad SD 9 PETCO Park PL 409 111.5 21.1 75.1 60 0 0 0 409 29
04/22/17 Video View Stanton, Giancarlo MIA Weaver, Jered SD 2 PETCO Park PL 374 108.9 22.6 122.9 55 0 0 -1 375 30
04/22/17 Video View Stanton, Giancarlo MIA Diaz, Miguel SD 11 PETCO Park ND 409 115.3 22.4 120.4 61 0 0 0 409 30
05/26/17 Video View Stanton, Giancarlo MIA Chavez, Jesse LAA 1 Marlins Park ND 462 111.1 24.1 90.4 93 0 1 0 461 30
05/28/17 Video View Stanton, Giancarlo MIA Shoemaker, Matt LAA 1 Marlins Park PL 408 102.8 32.1 102.2 119 0 2 0 406 30
05/30/17 Video View Stanton, Giancarlo MIA Leiter Jr., Mark PHI 3 Marlins Park JE 385 103.2 24.2 73.7 67 0 1 0 385 23
06/02/17 Video View Stanton, Giancarlo MIA Corbin, Patrick ARI 5 Marlins Park PL 354 95.8 33.6 63.2 96 0 1 0 353 22
06/09/17 Video View Stanton, Giancarlo MIA Glasnow, Tyler PIT 3 PNC Park ND 465 110.3 26.6 91.3 109 0 1 2 462 30
06/13/17 Video View Stanton, Giancarlo MIA Cotton, Jharel OAK 5 Marlins Park PL 394 103.5 36.0 102.8 144 0 3 0 391 30
06/19/17 Video View Stanton, Giancarlo MIA Turner, Jacob WSH 7 Marlins Park JE 390 100.9 27.2 75.1 82 0 1 0 390 27
06/23/17 Video View Stanton, Giancarlo MIA Lackey, John CHC 3 Marlins Park ND 457 113.8 21.0 94.1 75 0 1 0 456 30
06/25/17 Video View Stanton, Giancarlo MIA Strop, Pedro CHC 7 Marlins Park JE 364 105.2 23.6 122.5 56 0 1 0 363 24
06/29/17 Video View Stanton, Giancarlo MIA Lugo, Seth NYM 4 Marlins Park PL 388 101.4 30.7 112.6 96 0 1 0 387 30
07/05/17 Video View Stanton, Giancarlo MIA Leake, Mike STL 1 Busch Stadiu... JE 395 111.9 20.7 109.3 53 0 1 0 394 30
07/05/17 Video View Stanton, Giancarlo MIA Leake, Mike STL 2 Busch Stadiu... JE 416 105.1 23.1 95.0 72 0 0 0 415 22
07/17/17 Video View Stanton, Giancarlo MIA Eickhoff, Jerad PHI 1 Marlins Park ND 451 118.6 26.4 122.9 87 0 1 0 450 30
07/17/17 Video View Stanton, Giancarlo MIA Eickhoff, Jerad PHI 5 Marlins Park JE 383 102.2 36.9 103.5 145 0 2 0 380 22
07/18/17 Video View Stanton, Giancarlo MIA Velasquez, Vince PHI 1 Marlins Park ND 438 108.7 25.6 100.5 91 0 1 0 437 30
07/19/17 Video View Stanton, Giancarlo MIA Pivetta, Nick PHI 1 Marlins Park ND 470 111.8 26.9 93.4 114 0 1 0 469 30
07/24/17 Video View Stanton, Giancarlo MIA Jeffress, Jeremy TEX 8 Globe Life P... JE 381 100.2 27.2 71.0 76 0 1 1 379 24
08/07/17 Video View Stanton, Giancarlo MIA Scherzer, Max WSH 6 Nationals Pa... PL 405 102.5 33.7 98.6 131 0 1 0 404 27
08/08/17 Video View Stanton, Giancarlo MIA Cole, A.J. WSH 5 Nationals Pa... ND 440 108.3 31.6 98.2 135 0 2 0 439 30
08/10/17 Video View Stanton, Giancarlo MIA Roark, Tanner WSH 3 Nationals Pa... ND 422 108.4 27.5 111.0 91 0 1 0 421 30
08/11/17 Video View Stanton, Giancarlo MIA Gray, Jon COL 6 Marlins Park ND 436 112.7 24.2 108.1 79 0 1 0 435 30
08/12/17 Video View Stanton, Giancarlo MIA Hoffman, Jeff COL 4 Marlins Park ND 466 118.1 24.1 108.0 86 0 1 0 464 30
08/13/17 Video View Stanton, Giancarlo MIA Marquez, German COL 3 Marlins Park PL 365 98.4 31.6 60.6 88 0 1 0 364 28
08/14/17 Video View Stanton, Giancarlo MIA Blach, Ty SF 1 Marlins Park PL 377 99.9 30.1 114.9 87 0 1 0 375 29
08/15/17 Video View Stanton, Giancarlo MIA Bumgarner, Madison SF 3 Marlins Park PL 435 106.2 28.7 98.1 109 0 2 0 433 30
05/07/17 Video View Stanton, Giancarlo MIA Wilk, Adam NYM 3 Citi Field ND 447 117.6 26.0 117.8 89 -2 -2 0 451 30
07/26/17 Video View Stanton, Giancarlo MIA Grilli, Jason TEX 8 Globe Life P... ND 444 110.0 29.1 106.4 111 -2 4 2 439 30
08/04/17 Video View Stanton, Giancarlo MIA Dickey, R.A. ATL 6 SunTrust Par... PL 424 106.5 32.3 105.2 125 -2 3 4 418 30
05/08/17 Video View Stanton, Giancarlo MIA Socolovich, Miguel STL 9 Marlins Park JE 417 103.5 30.6 90.2 123 -8 1 0 423 28


About HitTracker | Contact Us
© 2006-2017 HitTrackerOnline